createdAt,value
2019-02-04T00:01:52.029Z,0.40
2019-02-04T00:04:22.656Z,0.40
2019-02-04T00:06:53.193Z,0.40
2019-02-04T00:09:24.185Z,0.40
2019-02-04T00:11:55.294Z,0.40
2019-02-04T00:14:26.220Z,0.30
2019-02-04T00:16:57.043Z,0.30
2019-02-04T00:19:28.188Z,0.40
2019-02-04T00:21:59.047Z,0.30
2019-02-04T00:24:30.287Z,0.40
2019-02-04T00:27:01.013Z,0.40
2019-02-04T00:29:31.948Z,0.40
2019-02-04T00:32:02.506Z,0.40
2019-02-04T00:34:33.257Z,0.40
2019-02-04T00:37:04.109Z,0.40
2019-02-04T00:39:35.006Z,0.40
2019-02-04T00:42:05.541Z,0.40
2019-02-04T00:44:36.106Z,0.40
2019-02-04T00:47:06.617Z,0.40
2019-02-04T00:49:38.268Z,0.40
2019-02-04T00:52:10.547Z,0.40
2019-02-04T00:54:41.071Z,0.30
2019-02-04T00:57:11.616Z,0.30
2019-02-04T00:59:42.135Z,0.30
2019-02-04T01:02:13.004Z,0.20
2019-02-04T01:04:43.849Z,0.20
2019-02-04T01:07:14.370Z,0.20
2019-02-04T01:09:45.175Z,0.10
2019-02-04T01:12:15.991Z,0.00
2019-02-04T01:14:46.611Z,-0.20
2019-02-04T01:17:19.499Z,-0.30
2019-02-04T01:19:51.484Z,-0.40
2019-02-04T01:22:22.294Z,-0.40
2019-02-04T01:24:53.195Z,-0.50
2019-02-04T01:27:23.975Z,-0.60
2019-02-04T01:29:56.042Z,-0.60
2019-02-04T01:32:26.569Z,-0.70
2019-02-04T01:34:57.108Z,-0.80
2019-02-04T01:37:28.289Z,-0.80
2019-02-04T01:39:59.113Z,-0.80
2019-02-04T01:42:29.632Z,-0.80
2019-02-04T01:45:00.319Z,-0.80
2019-02-04T01:47:31.093Z,-0.80
2019-02-04T01:50:01.627Z,-0.90
2019-02-04T01:52:32.416Z,-0.90
2019-02-04T01:55:03.260Z,-0.90
2019-02-04T01:57:34.049Z,-1.00
2019-02-04T02:00:07.285Z,-1.00
2019-02-04T02:02:38.053Z,-1.00
2019-02-04T02:05:08.762Z,-1.00
2019-02-04T02:07:39.424Z,-1.00
2019-02-04T02:10:12.255Z,-1.10
2019-02-04T02:12:42.984Z,-1.10
2019-02-04T02:15:13.865Z,-1.10
2019-02-04T02:17:44.388Z,-1.20
2019-02-04T02:20:18.928Z,-1.20
2019-02-04T02:22:49.418Z,-1.20
2019-02-04T02:25:20.459Z,-1.20
2019-02-04T02:27:51.350Z,-1.30
2019-02-04T02:30:31.006Z,-1.30
2019-02-04T02:33:01.629Z,-1.30
2019-02-04T02:35:32.397Z,-1.30
2019-02-04T02:38:03.189Z,-1.30
2019-02-04T02:40:36.063Z,-1.30
2019-02-04T02:43:07.042Z,-1.30
2019-02-04T02:45:37.540Z,-1.40
2019-02-04T02:48:08.335Z,-1.40
2019-02-04T02:50:40.250Z,-1.40
2019-02-04T02:53:11.093Z,-1.50
2019-02-04T02:55:42.566Z,-1.50
2019-02-04T02:58:13.407Z,-1.50
2019-02-04T03:00:44.229Z,-1.60
2019-02-04T03:03:14.755Z,-1.60
2019-02-04T03:05:46.745Z,-1.60
2019-02-04T03:08:18.666Z,-1.60
2019-02-04T03:10:49.581Z,-1.60
2019-02-04T03:13:20.750Z,-1.60
2019-02-04T03:15:51.300Z,-1.60
2019-02-04T03:18:22.240Z,-1.70
2019-02-04T03:20:53.277Z,-1.70
2019-02-04T03:23:23.778Z,-1.70
2019-02-04T03:25:54.310Z,-1.80
2019-02-04T03:28:24.803Z,-1.80
2019-02-04T03:30:56.477Z,-1.80
2019-02-04T03:33:27.401Z,-1.90
2019-02-04T03:35:58.246Z,-1.80
2019-02-04T03:38:28.773Z,-1.90
2019-02-04T03:40:59.362Z,-1.90
2019-02-04T03:43:30.463Z,-1.90
2019-02-04T03:46:01.471Z,-1.90
2019-02-04T03:48:32.262Z,-1.90
2019-02-04T03:51:02.785Z,-1.90
2019-02-04T03:53:33.317Z,-2.00
2019-02-04T03:56:04.038Z,-2.00
2019-02-04T03:58:35.218Z,-2.00
2019-02-04T04:01:05.739Z,-2.10
2019-02-04T04:03:36.569Z,-2.10
2019-02-04T04:06:07.657Z,-2.00
2019-02-04T04:08:38.428Z,-2.10
2019-02-04T04:11:09.363Z,-2.10
2019-02-04T04:13:39.903Z,-2.10
2019-02-04T04:16:10.642Z,-2.10
2019-02-04T04:18:41.556Z,-2.20
2019-02-04T04:21:12.379Z,-2.20
2019-02-04T04:23:42.906Z,-2.20
2019-02-04T04:26:13.500Z,-2.30
2019-02-04T04:28:44.341Z,-2.30
2019-02-04T04:31:14.861Z,-2.30
2019-02-04T04:33:45.561Z,-2.30
2019-02-04T04:36:16.447Z,-2.40
2019-02-04T04:38:48.752Z,-2.40
2019-02-04T04:41:19.477Z,-2.40
2019-02-04T04:43:50.047Z,-2.30
2019-02-04T04:46:20.837Z,-2.40
2019-02-04T04:48:51.621Z,-2.40
2019-02-04T04:51:22.450Z,-2.50
2019-02-04T04:53:53.002Z,-2.50
2019-02-04T04:56:23.537Z,-2.50
2019-02-04T04:58:54.127Z,-2.50
2019-02-04T05:01:24.777Z,-2.50
2019-02-04T05:03:55.612Z,-2.50
2019-02-04T05:06:26.158Z,-2.50
2019-02-04T05:08:56.704Z,-2.50
2019-02-04T05:11:27.610Z,-2.50
2019-02-04T05:13:58.426Z,-2.60
2019-02-04T05:16:29.265Z,-2.60
2019-02-04T05:18:59.777Z,-2.60
2019-02-04T05:21:30.612Z,-2.60
2019-02-04T05:24:01.111Z,-2.60
2019-02-04T05:26:31.614Z,-2.70
2019-02-04T05:29:03.684Z,-2.80
2019-02-04T05:31:34.875Z,-2.80
2019-02-04T05:34:05.642Z,-2.80
2019-02-04T05:36:36.283Z,-2.80
2019-02-04T05:39:09.366Z,-2.80
2019-02-04T05:41:42.940Z,-2.80
2019-02-04T05:44:12.823Z,-2.80
2019-02-04T05:46:43.699Z,-2.80
2019-02-04T05:49:14.171Z,-2.90
2019-02-04T05:51:44.698Z,-2.80
2019-02-04T05:54:15.779Z,-2.80
2019-02-04T05:56:46.580Z,-2.90
2019-02-04T05:59:18.329Z,-2.90
2019-02-04T06:01:48.870Z,-2.90
2019-02-04T06:04:19.701Z,-3.00
2019-02-04T06:06:50.823Z,-3.00
2019-02-04T06:09:21.643Z,-3.00
2019-02-04T06:11:52.486Z,-3.10
2019-02-04T06:14:23.069Z,-3.00
2019-02-04T06:16:53.807Z,-3.00
2019-02-04T06:19:26.454Z,-3.00
2019-02-04T06:21:57.062Z,-3.10
2019-02-04T06:24:29.247Z,-3.10
2019-02-04T06:26:59.834Z,-3.10
2019-02-04T06:29:30.835Z,-3.10
2019-02-04T06:32:01.690Z,-3.10
2019-02-04T06:34:33.863Z,-3.20
2019-02-04T06:37:04.815Z,-3.20
2019-02-04T06:39:35.614Z,-3.20
2019-02-04T06:42:07.633Z,-3.20
2019-02-04T06:44:38.816Z,-3.20
2019-02-04T06:47:09.651Z,-3.20
2019-02-04T06:49:41.359Z,-3.10
2019-02-04T06:52:11.902Z,-3.20
2019-02-04T06:54:42.740Z,-3.20
2019-02-04T06:57:13.300Z,-3.20
2019-02-04T06:59:43.781Z,-3.20
2019-02-04T07:02:14.697Z,-3.20
2019-02-04T07:04:45.177Z,-3.20
2019-02-04T07:07:15.896Z,-3.10
2019-02-04T07:09:46.400Z,-3.10
2019-02-04T07:12:18.390Z,-3.10
2019-02-04T07:14:48.973Z,-3.10
2019-02-04T07:17:19.793Z,-3.10
2019-02-04T07:19:50.305Z,-3.10
2019-02-04T07:22:21.061Z,-3.10
2019-02-04T07:24:51.918Z,-3.10
2019-02-04T07:27:22.690Z,-3.00
2019-02-04T07:29:53.279Z,-3.00
2019-02-04T07:32:23.771Z,-2.90
2019-02-04T07:34:54.319Z,-2.90
2019-02-04T07:37:25.018Z,-2.70
2019-02-04T07:39:55.807Z,-2.60
2019-02-04T07:42:26.621Z,-2.60
2019-02-04T07:44:57.214Z,-2.40
2019-02-04T07:47:27.787Z,-2.40
2019-02-04T07:49:58.345Z,-2.30
2019-02-04T07:52:29.158Z,-2.20
2019-02-04T07:54:59.902Z,-2.20
2019-02-04T07:57:30.720Z,-2.10
2019-02-04T08:00:01.273Z,-1.80
2019-02-04T08:02:31.831Z,-1.90
2019-02-04T08:05:02.906Z,-1.90
2019-02-04T08:07:33.459Z,-2.00
2019-02-04T08:10:04.195Z,-1.90
2019-02-04T08:12:35.052Z,-1.80
2019-02-04T08:15:09.086Z,-1.70
2019-02-04T08:17:40.081Z,-1.70
2019-02-04T08:20:11.551Z,-1.40
2019-02-04T08:22:42.271Z,-1.30
2019-02-04T08:25:14.345Z,-1.10
2019-02-04T08:27:45.052Z,-1.00
2019-02-04T08:30:21.974Z,-0.90
2019-02-04T08:32:52.572Z,-0.90
2019-02-04T08:35:23.253Z,-0.60
2019-02-04T08:37:54.149Z,-0.40
2019-02-04T08:40:25.314Z,-0.40
2019-02-04T08:42:56.238Z,-0.30
2019-02-04T08:45:27.098Z,-0.30
2019-02-04T08:47:57.896Z,0.00
2019-02-04T08:50:30.197Z,0.20
2019-02-04T08:53:01.011Z,0.20
2019-02-04T08:55:31.588Z,0.40
2019-02-04T08:58:02.173Z,0.60
2019-02-04T09:00:34.413Z,0.80
2019-02-04T09:03:04.983Z,1.00
2019-02-04T09:05:35.655Z,1.00
2019-02-04T09:08:06.620Z,1.00
2019-02-04T09:10:37.425Z,1.20
2019-02-04T09:13:08.269Z,1.30
2019-02-04T09:15:39.137Z,1.40
2019-02-04T09:18:10.421Z,1.30
2019-02-04T09:20:42.456Z,1.30
2019-02-04T09:23:14.912Z,1.40
2019-02-04T09:25:47.014Z,1.60
2019-02-04T09:28:18.694Z,1.80
2019-02-04T09:30:49.320Z,1.90
2019-02-04T09:33:20.339Z,1.80
2019-02-04T09:35:51.159Z,1.90
2019-02-04T09:38:21.970Z,2.10
2019-02-04T09:40:52.956Z,2.30
2019-02-04T09:43:23.588Z,2.50
2019-02-04T09:45:54.120Z,2.40
2019-02-04T09:48:25.293Z,2.70
2019-02-04T09:50:59.839Z,2.80
2019-02-04T09:53:30.846Z,2.80
2019-02-04T09:56:02.233Z,3.10
2019-02-04T09:58:33.461Z,3.40
2019-02-04T10:01:04.680Z,3.50
2019-02-04T10:03:35.477Z,3.70
2019-02-04T10:06:06.187Z,3.80
2019-02-04T10:08:38.544Z,3.90
2019-02-04T10:11:09.087Z,3.80
2019-02-04T10:13:39.721Z,4.00
2019-02-04T10:16:11.713Z,4.20
2019-02-04T10:18:42.628Z,4.40
2019-02-04T10:21:13.191Z,4.70
2019-02-04T10:23:43.862Z,4.30
2019-02-04T10:26:14.411Z,4.20
2019-02-04T10:28:45.159Z,4.10
2019-02-04T10:31:15.750Z,4.30
2019-02-04T10:33:48.342Z,4.60
2019-02-04T10:36:19.605Z,4.80
2019-02-04T10:38:50.236Z,5.10
2019-02-04T10:41:21.357Z,5.10
2019-02-04T10:43:52.186Z,5.30
2019-02-04T10:46:23.054Z,5.20
2019-02-04T10:48:53.735Z,5.20
2019-02-04T10:51:24.583Z,5.30
2019-02-04T10:53:55.477Z,5.50
2019-02-04T10:56:26.548Z,5.70
2019-02-04T10:58:57.205Z,5.70
2019-02-04T11:01:28.059Z,5.80
2019-02-04T11:03:58.629Z,5.60
2019-02-04T11:06:29.487Z,5.50
2019-02-04T11:09:00.236Z,5.90
2019-02-04T11:11:31.320Z,6.10
2019-02-04T11:14:02.116Z,6.20
2019-02-04T11:16:32.665Z,6.30
2019-02-04T11:19:03.455Z,6.40
2019-02-04T11:21:34.294Z,6.40
2019-02-04T11:24:05.386Z,6.20
2019-02-04T11:26:35.984Z,6.00
2019-02-04T11:29:07.010Z,5.90
2019-02-04T11:31:37.833Z,5.20
2019-02-04T11:34:09.291Z,5.20
2019-02-04T11:36:39.841Z,5.10
2019-02-04T11:39:11.182Z,5.00
2019-02-04T11:41:42.120Z,5.00
2019-02-04T11:44:12.729Z,5.30
2019-02-04T11:46:43.469Z,5.70
2019-02-04T11:49:14.086Z,5.80
2019-02-04T11:51:44.616Z,6.10
2019-02-04T11:54:15.407Z,6.10
2019-02-04T11:56:46.478Z,5.40
2019-02-04T11:59:17.462Z,5.20
2019-02-04T12:01:48.329Z,5.20
2019-02-04T12:04:19.772Z,5.40
2019-02-04T12:06:50.514Z,5.60
2019-02-04T12:09:22.441Z,5.70
2019-02-04T12:11:55.612Z,5.70
2019-02-04T12:14:25.678Z,5.70
2019-02-04T12:16:59.138Z,5.80
2019-02-04T12:19:28.985Z,5.70
2019-02-04T12:22:02.624Z,5.50
2019-02-04T12:24:31.989Z,5.40
2019-02-04T12:27:02.578Z,5.40
2019-02-04T12:29:33.900Z,5.30
2019-02-04T12:32:06.041Z,5.20
2019-02-04T12:34:36.886Z,5.30
2019-02-04T12:37:07.722Z,5.30
2019-02-04T12:39:38.340Z,5.00
2019-02-04T12:42:09.359Z,5.10
2019-02-04T12:44:41.236Z,5.00
2019-02-04T12:47:12.171Z,4.90
2019-02-04T12:49:42.711Z,4.90
2019-02-04T12:52:13.573Z,4.80
2019-02-04T12:54:44.359Z,4.80
2019-02-04T12:57:15.139Z,4.80
2019-02-04T12:59:45.691Z,4.70
2019-02-04T13:02:16.463Z,4.80
2019-02-04T13:04:47.343Z,4.60
2019-02-04T13:07:19.038Z,4.60
2019-02-04T13:09:49.624Z,4.50
2019-02-04T13:12:20.678Z,4.30
2019-02-04T13:14:51.420Z,4.20
2019-02-04T13:17:22.005Z,4.20
2019-02-04T13:19:52.647Z,4.10
2019-02-04T13:22:23.868Z,4.00
2019-02-04T13:24:54.676Z,4.10
2019-02-04T13:27:28.444Z,4.20
2019-02-04T13:29:59.030Z,4.10
2019-02-04T13:32:30.018Z,4.00
2019-02-04T13:35:00.615Z,3.80
2019-02-04T13:37:32.892Z,3.90
2019-02-04T13:40:03.724Z,3.80
2019-02-04T13:42:34.901Z,3.90
2019-02-04T13:45:08.460Z,3.80
2019-02-04T13:47:39.235Z,3.80
2019-02-04T13:50:10.474Z,3.70
2019-02-04T13:52:41.057Z,3.70
2019-02-04T13:55:15.532Z,3.80
2019-02-04T13:57:46.070Z,3.80
2019-02-04T14:00:17.471Z,3.60
2019-02-04T14:02:58.786Z,3.70
2019-02-04T14:05:21.313Z,3.60
2019-02-04T14:07:51.951Z,3.70
2019-02-04T14:10:27.126Z,3.60
2019-02-04T14:12:57.867Z,3.50
2019-02-04T14:15:28.924Z,3.50
2019-02-04T14:17:59.856Z,3.50
2019-02-04T14:20:50.083Z,3.50
2019-02-04T14:23:20.949Z,3.40
2019-02-04T14:25:52.830Z,3.30
2019-02-04T14:28:31.517Z,3.20
2019-02-04T14:31:11.891Z,3.20
2019-02-04T14:33:42.817Z,3.30
2019-02-04T14:36:14.842Z,3.30
2019-02-04T14:38:45.802Z,3.30
2019-02-04T14:41:16.680Z,3.30
2019-02-04T14:44:00.355Z,3.30
2019-02-04T14:47:32.540Z,3.20
2019-02-04T14:50:46.876Z,3.30
2019-02-04T14:54:15.033Z,3.20
2019-02-04T14:57:17.018Z,3.10
2019-02-04T14:59:58.734Z,3.00
2019-02-04T15:02:49.106Z,3.10
2019-02-04T15:06:16.222Z,3.10
2019-02-04T15:09:36.220Z,3.00
2019-02-04T15:12:23.037Z,3.00
2019-02-04T15:15:41.865Z,2.80
2019-02-04T15:18:55.699Z,2.90
2019-02-04T15:22:41.404Z,3.00
2019-02-04T15:26:39.309Z,2.90
2019-02-04T15:30:03.929Z,2.70
2019-02-04T15:33:27.937Z,2.60
2019-02-04T15:36:51.916Z,2.50
2019-02-04T15:39:59.348Z,2.40
2019-02-04T15:43:51.675Z,2.30
2019-02-04T15:47:02.122Z,2.20
2019-02-04T15:50:33.654Z,2.20
2019-02-04T15:53:04.458Z,2.20
2019-02-04T15:55:35.401Z,2.20
2019-02-04T15:58:06.167Z,2.10
2019-02-04T16:00:37.024Z,2.00
2019-02-04T16:03:07.958Z,2.00
2019-02-04T16:05:39.041Z,1.90
2019-02-04T16:08:10.224Z,1.90
2019-02-04T16:10:41.224Z,1.90
2019-02-04T16:13:11.953Z,1.80
2019-02-04T16:15:43.002Z,1.60
2019-02-04T16:18:14.056Z,1.50
2019-02-04T16:20:44.780Z,1.40
2019-02-04T16:23:15.369Z,1.40
2019-02-04T16:25:45.969Z,1.40
2019-02-04T16:28:16.668Z,1.40
2019-02-04T16:30:47.348Z,1.40
2019-02-04T16:33:18.035Z,1.30
2019-02-04T16:35:48.868Z,1.30
2019-02-04T16:38:20.257Z,1.30
2019-02-04T16:40:51.067Z,1.30
2019-02-04T16:43:22.115Z,1.20
2019-02-04T16:45:52.944Z,1.20
2019-02-04T16:48:23.828Z,1.10
2019-02-04T16:51:10.645Z,1.00
2019-02-04T16:53:26.923Z,1.00
2019-02-04T16:55:57.838Z,1.10
2019-02-04T16:58:28.440Z,0.90
2019-02-04T17:00:59.196Z,0.90
2019-02-04T17:03:30.133Z,0.90
2019-02-04T17:06:00.974Z,0.90
2019-02-04T17:08:32.222Z,0.80
2019-02-04T17:11:02.837Z,0.80
2019-02-04T17:13:33.689Z,0.70
2019-02-04T17:16:04.349Z,0.70
2019-02-04T17:18:35.242Z,0.70
2019-02-04T17:21:06.159Z,0.60
2019-02-04T17:23:37.884Z,0.60
2019-02-04T17:26:08.543Z,0.60
2019-02-04T17:28:39.215Z,0.60
2019-02-04T17:31:10.056Z,0.60
2019-02-04T17:33:40.610Z,0.50
2019-02-04T17:36:11.224Z,0.50
2019-02-04T17:38:42.013Z,0.50
2019-02-04T17:41:12.659Z,0.60
2019-02-04T17:43:43.389Z,0.60
2019-02-04T17:46:14.210Z,0.50
2019-02-04T17:48:45.123Z,0.40
2019-02-04T17:51:17.132Z,0.30
2019-02-04T17:53:48.035Z,0.20
2019-02-04T17:56:19.831Z,0.10
2019-02-04T17:58:50.504Z,0.10
2019-02-04T18:01:21.849Z,0.00
2019-02-04T18:03:52.483Z,-0.10
2019-02-04T18:06:23.429Z,-0.10
2019-02-04T18:08:57.120Z,-0.10
2019-02-04T18:11:28.025Z,-0.10
2019-02-04T18:13:59.024Z,-0.10
2019-02-04T18:16:29.850Z,-0.20
2019-02-04T18:19:00.423Z,-0.20
2019-02-04T18:21:31.310Z,-0.10
2019-02-04T18:24:02.159Z,-0.10
2019-02-04T18:26:32.854Z,-0.10
2019-02-04T18:29:03.464Z,-0.20
2019-02-04T18:31:34.385Z,-0.20
2019-02-04T18:34:06.737Z,-0.30
2019-02-04T18:36:37.542Z,-0.40
2019-02-04T18:39:11.268Z,-0.30
2019-02-04T18:41:42.231Z,-0.30
2019-02-04T18:44:14.692Z,-0.40
2019-02-04T18:46:45.631Z,-0.40
2019-02-04T18:49:16.697Z,-0.50
2019-02-04T18:51:48.798Z,-0.50
2019-02-04T18:54:20.836Z,-0.60
2019-02-04T18:56:51.584Z,-0.60
2019-02-04T18:59:22.441Z,-0.70
2019-02-04T19:01:53.525Z,-0.70
2019-02-04T19:04:24.510Z,-0.80
2019-02-04T19:06:55.386Z,-0.80
2019-02-04T19:09:26.385Z,-0.80
2019-02-04T19:11:57.315Z,-0.90
2019-02-04T19:14:28.298Z,-0.90
2019-02-04T19:17:00.329Z,-0.90
2019-02-04T19:19:30.870Z,-0.90
2019-02-04T19:22:01.594Z,-0.90
2019-02-04T19:24:32.463Z,-0.90
2019-02-04T19:27:05.959Z,-1.00
2019-02-04T19:29:41.658Z,-1.00
2019-02-04T19:32:13.139Z,-1.10
2019-02-04T19:34:44.558Z,-1.10
2019-02-04T19:37:24.756Z,-1.10
2019-02-04T19:39:58.455Z,-1.10
2019-02-04T19:42:40.529Z,-1.20
2019-02-04T19:45:18.435Z,-1.20
2019-02-04T19:48:47.497Z,-1.20
2019-02-04T19:51:32.629Z,-1.20
2019-02-04T19:54:04.791Z,-1.20
2019-02-04T19:56:48.567Z,-1.10
2019-02-04T19:59:35.902Z,-1.20
2019-02-04T20:09:09.758Z,-1.20
2019-02-04T20:11:40.835Z,-1.20
2019-02-04T20:14:11.451Z,-1.20
2019-02-04T20:16:42.714Z,-1.20
2019-02-04T20:19:13.438Z,-1.20
2019-02-04T20:21:45.649Z,-1.20
2019-02-04T20:24:16.409Z,-1.20
2019-02-04T20:26:47.326Z,-1.20
2019-02-04T20:29:18.318Z,-1.30
2019-02-04T20:31:48.941Z,-1.40
2019-02-04T20:34:20.599Z,-1.40
2019-02-04T20:36:51.409Z,-1.40
2019-02-04T20:39:22.451Z,-1.40
2019-02-04T20:41:53.476Z,-1.40
2019-02-04T20:44:24.513Z,-1.30
2019-02-04T20:46:55.538Z,-1.30
2019-02-04T20:49:26.661Z,-1.30
2019-02-04T20:51:57.706Z,-1.40
2019-02-04T20:54:28.804Z,-1.40
2019-02-04T20:56:59.507Z,-1.40
2019-02-04T20:59:30.467Z,-1.40
2019-02-04T21:02:01.637Z,-1.30
2019-02-04T21:04:32.768Z,-1.30
2019-02-04T21:07:03.697Z,-1.30
2019-02-04T21:09:34.693Z,-1.30
2019-02-04T21:12:05.470Z,-1.30
2019-02-04T21:14:36.451Z,-1.30
2019-02-04T21:17:07.203Z,-1.30
2019-02-04T21:19:39.277Z,-1.30
2019-02-04T21:22:10.174Z,-1.30
2019-02-04T21:24:40.906Z,-1.40
2019-02-04T21:27:13.265Z,-1.40
2019-02-04T21:29:46.822Z,-1.40
2019-02-04T21:32:17.593Z,-1.40
2019-02-04T21:34:48.679Z,-1.40
2019-02-04T21:37:20.816Z,-1.40
2019-02-04T21:39:51.718Z,-1.40
2019-02-04T21:42:22.861Z,-1.30
2019-02-04T21:44:53.797Z,-1.30
2019-02-04T21:47:24.647Z,-1.20
2019-02-04T21:49:55.448Z,-1.20
2019-02-04T21:52:26.648Z,-1.20
2019-02-04T21:55:08.036Z,-1.30
2019-02-04T21:57:31.901Z,-1.30
2019-02-04T22:00:05.039Z,-1.30
2019-02-04T22:02:36.789Z,-1.30
2019-02-04T22:05:10.877Z,-1.30
2019-02-04T22:07:41.422Z,-1.30
2019-02-04T22:10:16.868Z,-1.30
2019-02-04T22:12:47.668Z,-1.40
2019-02-04T22:15:18.598Z,-1.30
2019-02-04T22:17:51.344Z,-1.30
2019-02-04T22:20:23.982Z,-1.30
2019-02-04T22:22:54.503Z,-1.30
2019-02-04T22:25:25.791Z,-1.30
2019-02-04T22:27:56.688Z,-1.30
2019-02-04T22:30:29.862Z,-1.30
2019-02-04T22:33:01.616Z,-1.30
2019-02-04T22:35:34.827Z,-1.40
2019-02-04T22:38:05.730Z,-1.40
2019-02-04T22:40:36.819Z,-1.50
2019-02-04T22:43:08.616Z,-1.50
2019-02-04T22:45:39.480Z,-1.50
2019-02-04T22:48:10.117Z,-1.50
2019-02-04T22:50:41.037Z,-1.50
2019-02-04T22:53:11.852Z,-1.50
2019-02-04T22:55:42.585Z,-1.40
2019-02-04T22:58:13.150Z,-1.30
2019-02-04T23:01:42.371Z,-1.30
2019-02-04T23:04:13.038Z,-1.30
2019-02-04T23:06:43.927Z,-1.30
2019-02-04T23:09:14.724Z,-1.30
2019-02-04T23:11:45.583Z,-1.30
2019-02-04T23:14:16.160Z,-1.30
2019-02-04T23:16:46.865Z,-1.30
2019-02-04T23:19:17.766Z,-1.40
2019-02-04T23:21:48.376Z,-1.30
2019-02-04T23:24:20.518Z,-1.30
2019-02-04T23:26:51.035Z,-1.30
2019-02-04T23:29:21.764Z,-1.30
2019-02-04T23:31:52.539Z,-1.30
2019-02-04T23:34:23.500Z,-1.30
2019-02-04T23:36:54.502Z,-1.30
2019-02-04T23:39:26.119Z,-1.30
2019-02-04T23:41:58.383Z,-1.30
2019-02-04T23:44:30.298Z,-1.30
2019-02-04T23:47:00.871Z,-1.30
2019-02-04T23:49:31.915Z,-1.30
2019-02-04T23:52:02.926Z,-1.30
2019-02-04T23:54:33.839Z,-1.40
2019-02-04T23:57:04.717Z,-1.30
2019-02-04T23:59:35.324Z,-1.30
